LFKC 301030Z AUTO 36017KT 330V030 CAVOK 23/12 Q1015

ElémentsDécodage
LFKC Station météo située sur l'aérodrome de CALVI Sainte-Catherine
301030Z émis le 30 du mois à 10h30 UTC
AUTO Bulletin édité par un automate
36017KT vent du 360°, 17 noeuds
330V030 vent de direction variable entre 330° et 030°
CAVOK Ceiling And Visibility OK
- Visibilité de 10 Km ou plus
- Pas de nuage au-dessous de 1500m ou au-dessous de l'altitude minimale du secteur la plus élevée (si>1500m) et absence de CB
- pas de temps présent significatif
23/12 température 23°C, point de rosée 12°C
 soit une humidité relative de 50%
Q1015 la pression au niveau de la mer (QNH) est de 1015 hPa